sensor_id;sensor_type;location;lat;lon;timestamp;P1;durP1;ratioP1;P2;durP2;ratioP2
17686;SDS011;8962;52.538;13.266;2023-03-03T00:02:25;28.85;;;15.20;;
17686;SDS011;8962;52.538;13.266;2023-03-03T00:04:53;26.48;;;14.18;;
17686;SDS011;8962;52.538;13.266;2023-03-03T00:07:20;24.15;;;13.50;;
17686;SDS011;8962;52.538;13.266;2023-03-03T00:09:48;28.65;;;15.25;;
17686;SDS011;8962;52.538;13.266;2023-03-03T00:12:18;29.17;;;14.77;;
17686;SDS011;8962;52.538;13.266;2023-03-03T00:14:50;27.17;;;14.27;;
17686;SDS011;8962;52.538;13.266;2023-03-03T00:17:21;26.60;;;14.75;;
17686;SDS011;8962;52.538;13.266;2023-03-03T00:19:50;27.30;;;14.43;;
17686;SDS011;8962;52.538;13.266;2023-03-03T00:22:21;28.70;;;14.93;;
17686;SDS011;8962;52.538;13.266;2023-03-03T00:24:54;26.92;;;14.82;;
17686;SDS011;8962;52.538;13.266;2023-03-03T00:27:26;29.52;;;15.43;;
17686;SDS011;8962;52.538;13.266;2023-03-03T00:29:56;26.83;;;14.32;;
17686;SDS011;8962;52.538;13.266;2023-03-03T00:32:26;28.58;;;15.38;;
17686;SDS011;8962;52.538;13.266;2023-03-03T00:35:15;27.17;;;14.70;;
17686;SDS011;8962;52.538;13.266;2023-03-03T00:37:53;29.33;;;15.57;;
17686;SDS011;8962;52.538;13.266;2023-03-03T00:40:24;27.38;;;14.98;;
17686;SDS011;8962;52.538;13.266;2023-03-03T00:42:53;28.70;;;15.38;;
17686;SDS011;8962;52.538;13.266;2023-03-03T00:45:28;26.42;;;14.38;;
17686;SDS011;8962;52.538;13.266;2023-03-03T00:47:59;27.95;;;14.50;;
17686;SDS011;8962;52.538;13.266;2023-03-03T00:50:46;24.88;;;13.85;;
17686;SDS011;8962;52.538;13.266;2023-03-03T00:53:15;26.35;;;13.48;;
17686;SDS011;8962;52.538;13.266;2023-03-03T00:55:47;25.70;;;13.65;;
17686;SDS011;8962;52.538;13.266;2023-03-03T00:58:20;28.48;;;14.93;;
17686;SDS011;8962;52.538;13.266;2023-03-03T01:00:50;27.25;;;13.63;;
17686;SDS011;8962;52.538;13.266;2023-03-03T01:03:25;25.33;;;13.55;;
17686;SDS011;8962;52.538;13.266;2023-03-03T01:05:53;27.08;;;14.35;;
17686;SDS011;8962;52.538;13.266;2023-03-03T01:08:21;24.30;;;13.70;;
17686;SDS011;8962;52.538;13.266;2023-03-03T01:10:50;25.75;;;13.45;;
17686;SDS011;8962;52.538;13.266;2023-03-03T01:13:20;25.48;;;13.80;;
17686;SDS011;8962;52.538;13.266;2023-03-03T01:15:49;28.73;;;14.38;;
17686;SDS011;8962;52.538;13.266;2023-03-03T01:18:16;25.88;;;14.30;;
17686;SDS011;8962;52.538;13.266;2023-03-03T01:20:45;26.98;;;14.20;;
17686;SDS011;8962;52.538;13.266;2023-03-03T01:23:13;27.52;;;14.43;;
17686;SDS011;8962;52.538;13.266;2023-03-03T01:25:40;25.00;;;13.73;;
17686;SDS011;8962;52.538;13.266;2023-03-03T01:28:09;27.02;;;14.75;;
17686;SDS011;8962;52.538;13.266;2023-03-03T01:30:36;25.10;;;13.55;;
17686;SDS011;8962;52.538;13.266;2023-03-03T01:33:03;29.55;;;14.50;;
17686;SDS011;8962;52.538;13.266;2023-03-03T01:35:31;26.58;;;14.30;;
17686;SDS011;8962;52.538;13.266;2023-03-03T01:38:02;26.23;;;15.20;;
17686;SDS011;8962;52.538;13.266;2023-03-03T01:40:29;26.13;;;14.27;;
17686;SDS011;8962;52.538;13.266;2023-03-03T01:42:57;27.77;;;14.68;;
17686;SDS011;8962;52.538;13.266;2023-03-03T01:45:26;27.60;;;15.07;;
17686;SDS011;8962;52.538;13.266;2023-03-03T01:47:55;26.80;;;14.35;;
17686;SDS011;8962;52.538;13.266;2023-03-03T01:50:29;24.75;;;14.05;;
17686;SDS011;8962;52.538;13.266;2023-03-03T01:53:03;25.90;;;14.27;;
17686;SDS011;8962;52.538;13.266;2023-03-03T01:55:36;27.27;;;14.27;;
17686;SDS011;8962;52.538;13.266;2023-03-03T01:58:08;27.52;;;14.55;;
17686;SDS011;8962;52.538;13.266;2023-03-03T02:00:38;29.67;;;14.48;;
17686;SDS011;8962;52.538;13.266;2023-03-03T02:03:08;27.15;;;14.82;;
17686;SDS011;8962;52.538;13.266;2023-03-03T02:05:35;28.90;;;14.90;;
17686;SDS011;8962;52.538;13.266;2023-03-03T02:08:05;29.10;;;15.43;;
17686;SDS011;8962;52.538;13.266;2023-03-03T02:10:35;27.80;;;14.98;;
17686;SDS011;8962;52.538;13.266;2023-03-03T02:13:03;28.83;;;15.00;;
17686;SDS011;8962;52.538;13.266;2023-03-03T02:15:31;31.02;;;15.77;;
17686;SDS011;8962;52.538;13.266;2023-03-03T02:18:02;27.92;;;14.88;;
17686;SDS011;8962;52.538;13.266;2023-03-03T02:20:35;26.20;;;14.65;;
17686;SDS011;8962;52.538;13.266;2023-03-03T02:23:12;32.40;;;15.15;;
17686;SDS011;8962;52.538;13.266;2023-03-03T02:25:52;29.00;;;14.50;;
17686;SDS011;8962;52.538;13.266;2023-03-03T02:28:43;31.48;;;14.63;;
17686;SDS011;8962;52.538;13.266;2023-03-03T02:31:13;30.63;;;15.68;;
17686;SDS011;8962;52.538;13.266;2023-03-03T02:33:46;27.90;;;14.55;;
17686;SDS011;8962;52.538;13.266;2023-03-03T02:36:16;34.42;;;16.08;;
17686;SDS011;8962;52.538;13.266;2023-03-03T02:38:48;40.33;;;15.82;;
17686;SDS011;8962;52.538;13.266;2023-03-03T02:41:25;31.83;;;13.82;;
17686;SDS011;8962;52.538;13.266;2023-03-03T02:43:58;33.13;;;14.85;;
17686;SDS011;8962;52.538;13.266;2023-03-03T02:46:29;35.45;;;15.73;;
17686;SDS011;8962;52.538;13.266;2023-03-03T02:48:59;30.17;;;14.93;;
17686;SDS011;8962;52.538;13.266;2023-03-03T02:51:26;33.00;;;14.88;;
17686;SDS011;8962;52.538;13.266;2023-03-03T02:53:54;35.72;;;16.20;;
17686;SDS011;8962;52.538;13.266;2023-03-03T02:56:24;32.20;;;15.63;;
17686;SDS011;8962;52.538;13.266;2023-03-03T02:58:53;38.08;;;17.35;;
17686;SDS011;8962;52.538;13.266;2023-03-03T03:01:21;34.33;;;16.35;;
17686;SDS011;8962;52.538;13.266;2023-03-03T03:03:51;33.58;;;16.00;;
17686;SDS011;8962;52.538;13.266;2023-03-03T03:06:22;37.85;;;17.80;;
17686;SDS011;8962;52.538;13.266;2023-03-03T03:08:50;31.73;;;15.85;;
17686;SDS011;8962;52.538;13.266;2023-03-03T03:11:17;38.75;;;17.40;;
17686;SDS011;8962;52.538;13.266;2023-03-03T03:13:47;36.70;;;16.73;;
17686;SDS011;8962;52.538;13.266;2023-03-03T03:16:17;32.47;;;16.10;;
17686;SDS011;8962;52.538;13.266;2023-03-03T03:18:45;35.53;;;15.73;;
17686;SDS011;8962;52.538;13.266;2023-03-03T03:21:15;34.60;;;16.25;;
17686;SDS011;8962;52.538;13.266;2023-03-03T03:23:42;47.33;;;15.88;;
17686;SDS011;8962;52.538;13.266;2023-03-03T03:26:11;36.88;;;16.35;;
17686;SDS011;8962;52.538;13.266;2023-03-03T03:28:39;40.67;;;16.58;;
17686;SDS011;8962;52.538;13.266;2023-03-03T03:31:09;33.97;;;15.82;;
17686;SDS011;8962;52.538;13.266;2023-03-03T03:33:36;41.05;;;16.60;;
17686;SDS011;8962;52.538;13.266;2023-03-03T03:36:05;32.33;;;15.48;;
17686;SDS011;8962;52.538;13.266;2023-03-03T03:38:34;34.33;;;15.05;;
17686;SDS011;8962;52.538;13.266;2023-03-03T03:41:04;33.83;;;14.95;;
17686;SDS011;8962;52.538;13.266;2023-03-03T03:43:33;39.88;;;14.25;;
17686;SDS011;8962;52.538;13.266;2023-03-03T03:46:01;32.45;;;14.10;;
17686;SDS011;8962;52.538;13.266;2023-03-03T03:48:30;66.60;;;15.93;;
17686;SDS011;8962;52.538;13.266;2023-03-03T03:50:59;50.10;;;15.65;;
17686;SDS011;8962;52.538;13.266;2023-03-03T03:53:28;65.78;;;14.45;;
17686;SDS011;8962;52.538;13.266;2023-03-03T03:55:55;32.20;;;14.25;;
17686;SDS011;8962;52.538;13.266;2023-03-03T03:58:23;36.75;;;14.70;;
17686;SDS011;8962;52.538;13.266;2023-03-03T04:01:00;31.35;;;14.48;;
17686;SDS011;8962;52.538;13.266;2023-03-03T04:03:28;34.55;;;15.55;;
17686;SDS011;8962;52.538;13.266;2023-03-03T04:05:57;50.70;;;15.88;;
17686;SDS011;8962;52.538;13.266;2023-03-03T04:08:25;53.05;;;16.15;;
17686;SDS011;8962;52.538;13.266;2023-03-03T04:10:53;41.78;;;17.63;;
17686;SDS011;8962;52.538;13.266;2023-03-03T04:13:22;36.22;;;16.65;;
17686;SDS011;8962;52.538;13.266;2023-03-03T04:15:54;36.72;;;16.20;;
17686;SDS011;8962;52.538;13.266;2023-03-03T04:18:22;39.90;;;14.82;;
17686;SDS011;8962;52.538;13.266;2023-03-03T04:20:51;37.65;;;16.40;;
17686;SDS011;8962;52.538;13.266;2023-03-03T04:23:19;44.78;;;15.68;;
17686;SDS011;8962;52.538;13.266;2023-03-03T04:25:48;36.33;;;15.23;;
17686;SDS011;8962;52.538;13.266;2023-03-03T04:28:16;47.15;;;15.25;;
17686;SDS011;8962;52.538;13.266;2023-03-03T04:30:45;49.20;;;14.82;;
17686;SDS011;8962;52.538;13.266;2023-03-03T04:33:15;54.75;;;15.45;;
17686;SDS011;8962;52.538;13.266;2023-03-03T04:35:44;60.70;;;16.52;;
17686;SDS011;8962;52.538;13.266;2023-03-03T04:38:14;33.63;;;15.93;;
17686;SDS011;8962;52.538;13.266;2023-03-03T04:40:44;38.30;;;14.77;;
17686;SDS011;8962;52.538;13.266;2023-03-03T04:43:13;42.88;;;17.25;;
17686;SDS011;8962;52.538;13.266;2023-03-03T04:45:40;64.90;;;17.80;;
17686;SDS011;8962;52.538;13.266;2023-03-03T04:48:08;32.67;;;15.40;;
17686;SDS011;8962;52.538;13.266;2023-03-03T04:50:36;39.03;;;17.58;;
17686;SDS011;8962;52.538;13.266;2023-03-03T04:53:04;36.38;;;16.42;;
17686;SDS011;8962;52.538;13.266;2023-03-03T04:55:34;41.92;;;17.33;;
17686;SDS011;8962;52.538;13.266;2023-03-03T04:58:02;42.97;;;17.60;;
17686;SDS011;8962;52.538;13.266;2023-03-03T05:00:30;36.65;;;16.42;;
17686;SDS011;8962;52.538;13.266;2023-03-03T05:02:58;64.38;;;18.52;;
17686;SDS011;8962;52.538;13.266;2023-03-03T05:05:26;42.97;;;17.40;;
17686;SDS011;8962;52.538;13.266;2023-03-03T05:07:53;49.63;;;17.50;;
17686;SDS011;8962;52.538;13.266;2023-03-03T05:10:21;39.92;;;16.60;;
17686;SDS011;8962;52.538;13.266;2023-03-03T05:12:49;50.75;;;16.30;;
17686;SDS011;8962;52.538;13.266;2023-03-03T05:15:17;38.92;;;16.20;;
17686;SDS011;8962;52.538;13.266;2023-03-03T05:17:44;58.92;;;16.23;;
17686;SDS011;8962;52.538;13.266;2023-03-03T05:20:12;36.55;;;15.05;;
17686;SDS011;8962;52.538;13.266;2023-03-03T05:22:40;38.35;;;15.55;;
17686;SDS011;8962;52.538;13.266;2023-03-03T05:25:07;32.92;;;14.02;;
17686;SDS011;8962;52.538;13.266;2023-03-03T05:27:36;42.70;;;14.93;;
17686;SDS011;8962;52.538;13.266;2023-03-03T05:30:06;52.05;;;16.55;;
17686;SDS011;8962;52.538;13.266;2023-03-03T05:32:35;39.92;;;15.63;;
17686;SDS011;8962;52.538;13.266;2023-03-03T05:35:03;44.33;;;15.65;;
17686;SDS011;8962;52.538;13.266;2023-03-03T05:37:31;41.42;;;16.30;;
17686;SDS011;8962;52.538;13.266;2023-03-03T05:39:58;34.47;;;14.70;;
17686;SDS011;8962;52.538;13.266;2023-03-03T05:42:25;44.50;;;14.38;;
17686;SDS011;8962;52.538;13.266;2023-03-03T05:44:53;34.28;;;14.50;;
17686;SDS011;8962;52.538;13.266;2023-03-03T05:47:22;36.97;;;14.95;;
17686;SDS011;8962;52.538;13.266;2023-03-03T05:49:49;29.85;;;13.30;;
17686;SDS011;8962;52.538;13.266;2023-03-03T05:52:16;75.18;;;15.98;;
17686;SDS011;8962;52.538;13.266;2023-03-03T05:54:43;58.85;;;14.43;;
17686;SDS011;8962;52.538;13.266;2023-03-03T05:57:10;99.35;;;15.07;;
17686;SDS011;8962;52.538;13.266;2023-03-03T05:59:40;68.82;;;15.15;;
17686;SDS011;8962;52.538;13.266;2023-03-03T06:02:07;38.55;;;14.55;;
17686;SDS011;8962;52.538;13.266;2023-03-03T06:04:35;62.67;;;15.82;;
17686;SDS011;8962;52.538;13.266;2023-03-03T06:07:03;36.67;;;13.95;;
17686;SDS011;8962;52.538;13.266;2023-03-03T06:09:30;41.80;;;14.45;;
17686;SDS011;8962;52.538;13.266;2023-03-03T06:11:58;43.65;;;14.88;;
17686;SDS011;8962;52.538;13.266;2023-03-03T06:14:25;42.75;;;13.68;;
17686;SDS011;8962;52.538;13.266;2023-03-03T06:16:52;40.33;;;14.27;;
17686;SDS011;8962;52.538;13.266;2023-03-03T06:19:20;78.40;;;14.38;;
17686;SDS011;8962;52.538;13.266;2023-03-03T06:21:49;39.17;;;14.23;;
17686;SDS011;8962;52.538;13.266;2023-03-03T06:24:16;36.75;;;14.13;;
17686;SDS011;8962;52.538;13.266;2023-03-03T06:26:44;50.85;;;14.02;;
17686;SDS011;8962;52.538;13.266;2023-03-03T06:29:11;42.83;;;14.73;;
17686;SDS011;8962;52.538;13.266;2023-03-03T06:31:38;34.70;;;14.23;;
17686;SDS011;8962;52.538;13.266;2023-03-03T06:34:06;39.25;;;14.43;;
17686;SDS011;8962;52.538;13.266;2023-03-03T06:36:33;51.95;;;15.48;;
17686;SDS011;8962;52.538;13.266;2023-03-03T06:39:02;62.58;;;16.35;;
17686;SDS011;8962;52.538;13.266;2023-03-03T06:41:30;38.60;;;14.48;;
17686;SDS011;8962;52.538;13.266;2023-03-03T06:43:58;60.72;;;16.10;;
17686;SDS011;8962;52.538;13.266;2023-03-03T06:46:25;42.35;;;15.98;;
17686;SDS011;8962;52.538;13.266;2023-03-03T06:48:52;46.55;;;16.67;;
17686;SDS011;8962;52.538;13.266;2023-03-03T06:51:21;51.83;;;16.35;;
17686;SDS011;8962;52.538;13.266;2023-03-03T06:53:53;41.38;;;15.52;;
17686;SDS011;8962;52.538;13.266;2023-03-03T06:56:24;49.28;;;15.63;;
17686;SDS011;8962;52.538;13.266;2023-03-03T06:58:52;40.25;;;15.15;;
17686;SDS011;8962;52.538;13.266;2023-03-03T07:01:21;49.08;;;15.27;;
17686;SDS011;8962;52.538;13.266;2023-03-03T07:03:49;45.47;;;14.05;;
17686;SDS011;8962;52.538;13.266;2023-03-03T07:06:19;40.20;;;14.80;;
17686;SDS011;8962;52.538;13.266;2023-03-03T07:08:48;51.72;;;15.13;;
17686;SDS011;8962;52.538;13.266;2023-03-03T07:11:17;46.00;;;15.60;;
17686;SDS011;8962;52.538;13.266;2023-03-03T07:13:47;75.40;;;16.45;;
17686;SDS011;8962;52.538;13.266;2023-03-03T07:16:17;32.97;;;13.88;;
17686;SDS011;8962;52.538;13.266;2023-03-03T07:18:50;39.25;;;14.82;;
17686;SDS011;8962;52.538;13.266;2023-03-03T07:21:20;41.63;;;15.73;;
17686;SDS011;8962;52.538;13.266;2023-03-03T07:23:49;43.03;;;14.77;;
17686;SDS011;8962;52.538;13.266;2023-03-03T07:26:18;65.00;;;16.13;;
17686;SDS011;8962;52.538;13.266;2023-03-03T07:28:52;37.05;;;14.52;;
17686;SDS011;8962;52.538;13.266;2023-03-03T07:31:28;37.20;;;13.18;;
17686;SDS011;8962;52.538;13.266;2023-03-03T07:33:59;63.55;;;13.88;;
17686;SDS011;8962;52.538;13.266;2023-03-03T07:36:29;64.43;;;14.40;;
17686;SDS011;8962;52.538;13.266;2023-03-03T07:39:01;36.60;;;14.13;;
17686;SDS011;8962;52.538;13.266;2023-03-03T07:41:36;48.38;;;13.27;;
17686;SDS011;8962;52.538;13.266;2023-03-03T07:44:06;33.63;;;12.95;;
17686;SDS011;8962;52.538;13.266;2023-03-03T07:46:43;36.03;;;12.85;;
17686;SDS011;8962;52.538;13.266;2023-03-03T07:49:17;45.05;;;13.60;;
17686;SDS011;8962;52.538;13.266;2023-03-03T07:51:50;40.33;;;12.18;;
17686;SDS011;8962;52.538;13.266;2023-03-03T07:54:28;38.78;;;12.63;;
17686;SDS011;8962;52.538;13.266;2023-03-03T07:56:58;39.42;;;11.93;;
17686;SDS011;8962;52.538;13.266;2023-03-03T07:59:40;33.65;;;12.23;;
17686;SDS011;8962;52.538;13.266;2023-03-03T08:02:17;29.23;;;11.10;;
17686;SDS011;8962;52.538;13.266;2023-03-03T08:05:20;31.25;;;13.35;;
17686;SDS011;8962;52.538;13.266;2023-03-03T08:07:54;23.50;;;10.77;;
17686;SDS011;8962;52.538;13.266;2023-03-03T08:10:36;24.67;;;10.30;;
17686;SDS011;8962;52.538;13.266;2023-03-03T08:13:12;21.98;;;9.43;;
17686;SDS011;8962;52.538;13.266;2023-03-03T08:15:45;27.10;;;10.90;;
17686;SDS011;8962;52.538;13.266;2023-03-03T08:18:20;25.88;;;11.73;;
17686;SDS011;8962;52.538;13.266;2023-03-03T08:20:51;22.95;;;10.68;;
17686;SDS011;8962;52.538;13.266;2023-03-03T08:23:20;22.45;;;10.50;;
17686;SDS011;8962;52.538;13.266;2023-03-03T08:25:48;21.15;;;9.88;;
17686;SDS011;8962;52.538;13.266;2023-03-03T08:28:16;23.55;;;10.57;;
17686;SDS011;8962;52.538;13.266;2023-03-03T08:30:52;21.25;;;9.65;;
17686;SDS011;8962;52.538;13.266;2023-03-03T08:33:20;21.63;;;9.18;;
17686;SDS011;8962;52.538;13.266;2023-03-03T08:35:47;20.30;;;9.13;;
17686;SDS011;8962;52.538;13.266;2023-03-03T08:38:16;23.02;;;10.50;;
17686;SDS011;8962;52.538;13.266;2023-03-03T08:40:45;20.58;;;10.63;;
17686;SDS011;8962;52.538;13.266;2023-03-03T08:43:13;18.13;;;9.68;;
17686;SDS011;8962;52.538;13.266;2023-03-03T08:45:41;20.23;;;9.32;;
17686;SDS011;8962;52.538;13.266;2023-03-03T08:48:11;23.90;;;10.90;;
17686;SDS011;8962;52.538;13.266;2023-03-03T08:50:38;20.05;;;10.05;;
17686;SDS011;8962;52.538;13.266;2023-03-03T08:53:06;20.00;;;9.55;;
17686;SDS011;8962;52.538;13.266;2023-03-03T08:55:34;20.75;;;9.57;;
17686;SDS011;8962;52.538;13.266;2023-03-03T08:58:02;22.63;;;9.73;;
17686;SDS011;8962;52.538;13.266;2023-03-03T09:00:30;16.60;;;9.00;;
17686;SDS011;8962;52.538;13.266;2023-03-03T09:02:57;19.83;;;9.85;;
17686;SDS011;8962;52.538;13.266;2023-03-03T09:05:26;16.30;;;8.63;;
17686;SDS011;8962;52.538;13.266;2023-03-03T09:07:53;17.77;;;9.40;;
17686;SDS011;8962;52.538;13.266;2023-03-03T09:10:22;18.70;;;9.80;;
17686;SDS011;8962;52.538;13.266;2023-03-03T09:12:52;15.20;;;8.40;;
17686;SDS011;8962;52.538;13.266;2023-03-03T09:15:23;16.30;;;8.80;;
17686;SDS011;8962;52.538;13.266;2023-03-03T09:17:53;18.13;;;8.63;;
17686;SDS011;8962;52.538;13.266;2023-03-03T09:20:29;18.52;;;9.23;;
17686;SDS011;8962;52.538;13.266;2023-03-03T09:22:59;16.98;;;8.50;;
17686;SDS011;8962;52.538;13.266;2023-03-03T09:25:52;20.83;;;9.55;;
17686;SDS011;8962;52.538;13.266;2023-03-03T09:28:22;18.75;;;9.25;;
17686;SDS011;8962;52.538;13.266;2023-03-03T09:30:51;22.70;;;9.55;;
17686;SDS011;8962;52.538;13.266;2023-03-03T09:33:25;19.35;;;9.68;;
17686;SDS011;8962;52.538;13.266;2023-03-03T09:36:00;17.48;;;9.45;;
17686;SDS011;8962;52.538;13.266;2023-03-03T09:38:31;23.27;;;11.73;;
17686;SDS011;8962;52.538;13.266;2023-03-03T09:41:10;21.10;;;9.98;;
17686;SDS011;8962;52.538;13.266;2023-03-03T09:47:02;27.73;;;10.45;;
17686;SDS011;8962;52.538;13.266;2023-03-03T09:49:43;20.85;;;9.85;;
17686;SDS011;8962;52.538;13.266;2023-03-03T09:52:26;18.52;;;9.35;;
17686;SDS011;8962;52.538;13.266;2023-03-03T09:55:11;22.08;;;10.15;;
17686;SDS011;8962;52.538;13.266;2023-03-03T09:57:55;18.42;;;9.77;;
17686;SDS011;8962;52.538;13.266;2023-03-03T10:00:36;21.98;;;9.73;;
17686;SDS011;8962;52.538;13.266;2023-03-03T10:03:24;19.23;;;9.65;;
17686;SDS011;8962;52.538;13.266;2023-03-03T10:06:12;19.60;;;9.90;;
17686;SDS011;8962;52.538;13.266;2023-03-03T10:08:56;23.33;;;9.77;;
17686;SDS011;8962;52.538;13.266;2023-03-03T10:11:37;25.42;;;10.27;;
17686;SDS011;8962;52.538;13.266;2023-03-03T10:14:38;22.90;;;9.85;;
17686;SDS011;8962;52.538;13.266;2023-03-03T10:17:19;23.30;;;9.95;;
17686;SDS011;8962;52.538;13.266;2023-03-03T10:19:58;21.95;;;9.65;;
17686;SDS011;8962;52.538;13.266;2023-03-03T10:22:33;21.75;;;10.30;;
17686;SDS011;8962;52.538;13.266;2023-03-03T10:25:17;21.77;;;10.13;;
17686;SDS011;8962;52.538;13.266;2023-03-03T10:27:55;23.52;;;10.50;;
17686;SDS011;8962;52.538;13.266;2023-03-03T10:30:34;25.60;;;10.90;;
17686;SDS011;8962;52.538;13.266;2023-03-03T10:33:11;26.42;;;10.98;;
17686;SDS011;8962;52.538;13.266;2023-03-03T10:35:57;25.80;;;12.50;;
17686;SDS011;8962;52.538;13.266;2023-03-03T10:38:50;30.83;;;12.23;;
17686;SDS011;8962;52.538;13.266;2023-03-03T10:41:30;27.58;;;12.43;;
17686;SDS011;8962;52.538;13.266;2023-03-03T10:44:19;27.20;;;12.98;;
17686;SDS011;8962;52.538;13.266;2023-03-03T10:47:07;26.38;;;12.63;;
17686;SDS011;8962;52.538;13.266;2023-03-03T10:49:52;27.67;;;12.55;;
17686;SDS011;8962;52.538;13.266;2023-03-03T10:52:31;28.98;;;12.82;;
17686;SDS011;8962;52.538;13.266;2023-03-03T10:55:13;25.70;;;12.18;;
17686;SDS011;8962;52.538;13.266;2023-03-03T10:57:56;25.58;;;13.02;;
17686;SDS011;8962;52.538;13.266;2023-03-03T11:00:43;29.42;;;12.57;;
17686;SDS011;8962;52.538;13.266;2023-03-03T11:03:26;28.85;;;13.75;;
17686;SDS011;8962;52.538;13.266;2023-03-03T11:06:23;28.70;;;13.27;;
17686;SDS011;8962;52.538;13.266;2023-03-03T11:08:55;29.75;;;12.88;;
17686;SDS011;8962;52.538;13.266;2023-03-03T11:11:31;32.38;;;14.27;;
17686;SDS011;8962;52.538;13.266;2023-03-03T11:14:07;32.80;;;14.13;;
17686;SDS011;8962;52.538;13.266;2023-03-03T11:16:41;31.05;;;13.10;;
17686;SDS011;8962;52.538;13.266;2023-03-03T11:19:27;28.67;;;13.45;;
17686;SDS011;8962;52.538;13.266;2023-03-03T11:22:06;28.02;;;13.90;;
17686;SDS011;8962;52.538;13.266;2023-03-03T11:24:52;30.92;;;13.80;;
17686;SDS011;8962;52.538;13.266;2023-03-03T11:27:34;31.55;;;14.18;;
17686;SDS011;8962;52.538;13.266;2023-03-03T11:30:26;31.95;;;14.00;;
17686;SDS011;8962;52.538;13.266;2023-03-03T11:33:00;28.42;;;13.68;;
17686;SDS011;8962;52.538;13.266;2023-03-03T11:35:33;29.50;;;13.95;;
17686;SDS011;8962;52.538;13.266;2023-03-03T11:38:10;28.45;;;13.20;;
17686;SDS011;8962;52.538;13.266;2023-03-03T11:40:50;29.15;;;13.77;;
17686;SDS011;8962;52.538;13.266;2023-03-03T11:43:21;34.45;;;13.98;;
17686;SDS011;8962;52.538;13.266;2023-03-03T11:45:57;29.08;;;13.93;;
17686;SDS011;8962;52.538;13.266;2023-03-03T11:48:31;30.52;;;13.93;;
17686;SDS011;8962;52.538;13.266;2023-03-03T11:51:05;31.98;;;14.70;;
17686;SDS011;8962;52.538;13.266;2023-03-03T11:53:43;31.58;;;13.85;;
17686;SDS011;8962;52.538;13.266;2023-03-03T11:56:21;32.08;;;13.52;;
17686;SDS011;8962;52.538;13.266;2023-03-03T11:59:04;30.45;;;13.98;;
17686;SDS011;8962;52.538;13.266;2023-03-03T12:01:45;34.38;;;15.13;;
17686;SDS011;8962;52.538;13.266;2023-03-03T12:04:19;31.52;;;14.10;;
17686;SDS011;8962;52.538;13.266;2023-03-03T12:06:59;32.45;;;15.43;;
17686;SDS011;8962;52.538;13.266;2023-03-03T12:09:42;33.10;;;14.93;;
17686;SDS011;8962;52.538;13.266;2023-03-03T12:12:19;33.42;;;15.32;;
17686;SDS011;8962;52.538;13.266;2023-03-03T12:15:01;33.47;;;15.25;;
17686;SDS011;8962;52.538;13.266;2023-03-03T12:17:50;29.30;;;14.68;;
17686;SDS011;8962;52.538;13.266;2023-03-03T12:20:31;36.70;;;15.85;;
17686;SDS011;8962;52.538;13.266;2023-03-03T12:23:09;33.70;;;15.73;;
17686;SDS011;8962;52.538;13.266;2023-03-03T12:25:45;31.17;;;15.02;;
17686;SDS011;8962;52.538;13.266;2023-03-03T12:28:20;36.92;;;15.57;;
17686;SDS011;8962;52.538;13.266;2023-03-03T12:31:05;32.53;;;14.10;;
17686;SDS011;8962;52.538;13.266;2023-03-03T12:33:56;28.80;;;14.38;;
17686;SDS011;8962;52.538;13.266;2023-03-03T12:36:33;33.30;;;14.57;;
17686;SDS011;8962;52.538;13.266;2023-03-03T12:39:11;35.72;;;15.85;;
17686;SDS011;8962;52.538;13.266;2023-03-03T12:41:49;32.72;;;15.38;;
17686;SDS011;8962;52.538;13.266;2023-03-03T12:44:27;32.97;;;15.20;;
17686;SDS011;8962;52.538;13.266;2023-03-03T12:47:00;32.95;;;15.90;;
17686;SDS011;8962;52.538;13.266;2023-03-03T12:49:38;34.95;;;14.82;;
17686;SDS011;8962;52.538;13.266;2023-03-03T12:52:14;35.88;;;15.30;;
17686;SDS011;8962;52.538;13.266;2023-03-03T12:54:57;31.60;;;14.20;;
17686;SDS011;8962;52.538;13.266;2023-03-03T12:57:33;28.77;;;13.90;;
17686;SDS011;8962;52.538;13.266;2023-03-03T13:00:15;27.85;;;13.90;;
17686;SDS011;8962;52.538;13.266;2023-03-03T13:03:05;29.23;;;13.80;;
17686;SDS011;8962;52.538;13.266;2023-03-03T13:05:43;30.25;;;14.40;;
17686;SDS011;8962;52.538;13.266;2023-03-03T13:08:22;34.70;;;14.48;;
17686;SDS011;8962;52.538;13.266;2023-03-03T13:10:58;29.95;;;15.02;;
17686;SDS011;8962;52.538;13.266;2023-03-03T13:13:36;29.60;;;14.73;;
17686;SDS011;8962;52.538;13.266;2023-03-03T13:16:09;35.08;;;16.55;;
17686;SDS011;8962;52.538;13.266;2023-03-03T13:18:45;32.53;;;15.90;;
17686;SDS011;8962;52.538;13.266;2023-03-03T13:21:20;32.60;;;16.63;;
17686;SDS011;8962;52.538;13.266;2023-03-03T13:23:52;37.92;;;16.42;;
17686;SDS011;8962;52.538;13.266;2023-03-03T13:26:24;34.10;;;17.55;;
17686;SDS011;8962;52.538;13.266;2023-03-03T13:28:58;36.92;;;16.15;;
17686;SDS011;8962;52.538;13.266;2023-03-03T13:31:32;31.80;;;15.25;;
17686;SDS011;8962;52.538;13.266;2023-03-03T13:34:02;27.30;;;14.32;;
17686;SDS011;8962;52.538;13.266;2023-03-03T13:36:36;26.98;;;13.95;;
17686;SDS011;8962;52.538;13.266;2023-03-03T13:39:11;24.98;;;13.75;;
17686;SDS011;8962;52.538;13.266;2023-03-03T13:41:45;29.75;;;14.05;;
17686;SDS011;8962;52.538;13.266;2023-03-03T13:44:22;27.50;;;13.75;;
17686;SDS011;8962;52.538;13.266;2023-03-03T13:46:55;24.55;;;13.02;;
17686;SDS011;8962;52.538;13.266;2023-03-03T13:49:48;25.88;;;14.30;;
17686;SDS011;8962;52.538;13.266;2023-03-03T13:52:28;27.42;;;14.35;;
17686;SDS011;8962;52.538;13.266;2023-03-03T13:55:05;28.75;;;14.52;;
17686;SDS011;8962;52.538;13.266;2023-03-03T13:57:47;26.00;;;13.98;;
17686;SDS011;8962;52.538;13.266;2023-03-03T14:00:25;24.80;;;13.65;;
17686;SDS011;8962;52.538;13.266;2023-03-03T14:03:02;29.38;;;14.25;;
17686;SDS011;8962;52.538;13.266;2023-03-03T14:05:43;28.08;;;14.57;;
17686;SDS011;8962;52.538;13.266;2023-03-03T14:08:17;26.13;;;13.23;;
17686;SDS011;8962;52.538;13.266;2023-03-03T14:11:02;30.42;;;14.43;;
17686;SDS011;8962;52.538;13.266;2023-03-03T14:13:38;26.50;;;13.18;;
17686;SDS011;8962;52.538;13.266;2023-03-03T14:16:10;25.00;;;13.38;;
17686;SDS011;8962;52.538;13.266;2023-03-03T14:18:45;30.38;;;14.35;;
17686;SDS011;8962;52.538;13.266;2023-03-03T14:21:22;26.48;;;13.85;;
17686;SDS011;8962;52.538;13.266;2023-03-03T14:23:57;26.48;;;14.05;;
17686;SDS011;8962;52.538;13.266;2023-03-03T14:26:29;26.30;;;13.48;;
17686;SDS011;8962;52.538;13.266;2023-03-03T14:29:19;29.17;;;14.75;;
17686;SDS011;8962;52.538;13.266;2023-03-03T14:31:48;27.63;;;14.35;;
17686;SDS011;8962;52.538;13.266;2023-03-03T14:34:25;25.15;;;13.68;;
17686;SDS011;8962;52.538;13.266;2023-03-03T14:37:20;27.85;;;14.82;;
17686;SDS011;8962;52.538;13.266;2023-03-03T14:40:01;25.90;;;14.30;;
17686;SDS011;8962;52.538;13.266;2023-03-03T14:42:39;27.27;;;14.15;;
17686;SDS011;8962;52.538;13.266;2023-03-03T14:45:18;24.00;;;13.27;;
17686;SDS011;8962;52.538;13.266;2023-03-03T14:47:50;26.50;;;14.55;;
17686;SDS011;8962;52.538;13.266;2023-03-03T14:50:29;25.50;;;14.50;;
17686;SDS011;8962;52.538;13.266;2023-03-03T14:53:10;26.45;;;13.95;;
17686;SDS011;8962;52.538;13.266;2023-03-03T14:55:43;26.80;;;14.45;;
17686;SDS011;8962;52.538;13.266;2023-03-03T14:58:26;28.75;;;15.27;;
17686;SDS011;8962;52.538;13.266;2023-03-03T15:01:05;25.77;;;13.90;;
17686;SDS011;8962;52.538;13.266;2023-03-03T15:03:49;31.85;;;16.20;;